Airfield :
LOGIN :

Register | Disclaimer

   EN    FR    IT 

 










Legend :    VFR   Marginal VFR   IFR   Intensive IFR   Very Intensive IFR
Visi :
Ceiling :
>= 8 km
>= 3000ft
5 to 8 km
1000 to 3000 ft
1500m to 5 km
500 to 1000 ft
800 to 1500m
200 to 500 ft
< 800m
< 200 ft
Symbols :   Thunderstorms  Fog  Heavy snow  Heavy precipitations  Wind > 20 kt
SIGMETs :     Misc.  Thunderstorms  Icing  Turbulence  Mountain Waves  Volcanic Ashes






- Airport Elevation : 1202 ft
- IATA code : IGS


ETSI - Ingolstadt

CURRENT METAR :
  • 280420Z 28006KT 9000 -RA FEW010 BKN040 13/12 Q1018 BLU BLU TEMPO GRN

EXPIRED METARs :
  • 280320Z 30007KT 9999 -RA FEW009 BKN037 13/12 Q1018 BLU
  • 280220Z AUTO 28006KT //// // ////// 14/13 Q1017 ///
  • 280120Z AUTO 26005KT //// // ////// 14/13 Q1017 ///

TAF TAF ETSI
Valid from the 28 at 05:00 until the 28 at 14:00 UTC


280410Z 2805/2814 27007KT 9999 NSW SCT015 BKN050
TEMPO 2805/2810 29012KT 6000 -RA BKN012 BKN030 BKN100



MET'MAP, your aeronautical weather chart ! - Copyright ORBIFLY December 2007 - Disclaimer

ORBIFLY MET'MAP TEAM :

Programming & Development : Alexandra Zaïnal
Original concept : Baudouin d'Aumeries
Technical & hardware support : Manuel Goepfert
Assistance : Marc-Olivier Méhu




SOURCES & CREDITS :

   NOAA